Amman, Jordan

8:31 PM EEST on July 23, 2014 (GMT +0300)
Mars Mount (IMARIKHA2) Elev 2953 ft | 31.93 °N, 35.92 °E | Change Station

Current weather conditions updated 57 seconds ago

Clear
Clear
78.3 °F
Feels Like 79 °F
N
6.6
Wind Variable Wind from North
Gusts 12.1 mph

Tomorrow is forecast to be Warmer than today.

Today
High -- | Low -- °F
--% Chance of Precip.
Yesterday
High -- | Low -- °F
Precip. -- in
5:45 AM 7:39 PM
Waning Crescent, 9% visible
Pressure 29.89 in
Visibility 3.7 miles
Clouds
Heat Index 79 °F
Dew Point 57 °F
Humidity 48%
Rainfall 0.00 in
Snow Depth Not available.
UV Not available.
Pollen Not available.
Air Quality Not available.
Flu Activity Not available.
METAR OJAM 231700Z 33015KT 6000 NSC 27/13 Q1012 NOSIG

More Conditions Fewer Conditions

Pressure 29.89 in
Visibility 3.7 miles
Clouds
Heat Index 79 °F
Dew Point 57 °F
Humidity 48%
Rainfall 0.00 in
Snow Depth Not available.
UV Not available.
Pollen Not available.
Air Quality Not available.
Flu Activity Not available.
METAR OJAM 231700Z 33015KT 6000 NSC 27/13 Q1012 NOSIG

More Conditions Fewer Conditions

10-Day Weather Forecast

Almanac

Astronomy

Jul. 23, 2014 Rise Set
Actual Time 5:45 AM EEST 7:39 PM EEST
Civil Twilight 5:18 AM EEST 8:06 PM EEST
Nautical Twilight 4:45 AM EEST 8:39 PM EEST
Astronomical Twilight 4:10 AM EEST 9:14 PM EEST
Moon 2:46 AM EEST 4:52 PM EEST
Length of Visible Light 14h 48m
Length of Day
13h 53m
Tomorrow will be 1m 13s shorter.
Waning Crescent, 9% of the Moon is Illuminated
Today
Waning Crescent
Jul 26
New
Aug 3
First Quarter
Aug 10
Full
Aug 17
Last Quarter

Today's Extremes

Country Highs Country Lows

Community

WunderPhotos

Upload Photos

1,736,684 photos uploaded!

Nearby

Snow Depth

Not available.

Earthquake Activity

City Distance Mag. Time & Date
No recent earthquake activity has been reported nearby.
Minimum magnitude displayed is 2.5.

Coastal Water Temperatures

Place Temperature
No Stations Reporting

Nearby Weather Stations

Station Location Temp. Heat Index Dew Point Humidity Wind Precip. Elev Updated Type
Mars Mount, Amman 78.3 °F 79 °F 57 °F 48% North  at  6.6 mph 0.00 in / hr 2953 ft 8:31 PM EEST Normal
Al Jubayhah, Balqa 74.1 °F 76 °F 62 °F 66% NW  at  9.8 mph 0.00 in / hr 3234 ft 8:31 PM EEST Rapid Fire
Umm As Summaq, Amman 75.7 °F 78 °F 59 °F 57% NW  at  2.9 mph 0.00 in / hr 3251 ft 8:31 PM EEST Rapid Fire
Amman, Marj al-Hamam 74.8 °F 78 °F 57 °F 53% SW  at  8.4 mph 0.00 in / hr 3035 ft 8:31 PM IDT Normal

Show More Stations Show Fewer Stations